sensor_id;sensor_type;location;lat;lon;timestamp;temperature;humidity
21481;DHT22;10902;48.158;8.634;2023-03-25T00:02:03;6.30;99.90
21481;DHT22;10902;48.158;8.634;2023-03-25T00:04:29;6.20;99.90
21481;DHT22;10902;48.158;8.634;2023-03-25T00:06:55;6.30;99.90
21481;DHT22;10902;48.158;8.634;2023-03-25T00:09:21;6.40;99.90
21481;DHT22;10902;48.158;8.634;2023-03-25T00:11:50;6.50;99.90
21481;DHT22;10902;48.158;8.634;2023-03-25T00:14:16;6.60;99.90
21481;DHT22;10902;48.158;8.634;2023-03-25T00:16:42;6.70;99.90
21481;DHT22;10902;48.158;8.634;2023-03-25T00:19:13;6.70;99.90
21481;DHT22;10902;48.158;8.634;2023-03-25T00:21:40;6.80;99.90
21481;DHT22;10902;48.158;8.634;2023-03-25T00:24:11;6.50;99.90
21481;DHT22;10902;48.158;8.634;2023-03-25T00:26:45;6.30;99.90
21481;DHT22;10902;48.158;8.634;2023-03-25T00:29:11;6.20;99.90
21481;DHT22;10902;48.158;8.634;2023-03-25T00:31:38;6.10;99.90
21481;DHT22;10902;48.158;8.634;2023-03-25T00:34:04;6.10;99.90
21481;DHT22;10902;48.158;8.634;2023-03-25T00:36:29;6.10;99.90
21481;DHT22;10902;48.158;8.634;2023-03-25T00:38:55;6.00;99.90
21481;DHT22;10902;48.158;8.634;2023-03-25T00:41:23;6.00;99.90
21481;DHT22;10902;48.158;8.634;2023-03-25T00:43:56;6.10;99.90
21481;DHT22;10902;48.158;8.634;2023-03-25T00:46:23;6.10;99.90
21481;DHT22;10902;48.158;8.634;2023-03-25T00:48:51;6.00;99.90
21481;DHT22;10902;48.158;8.634;2023-03-25T00:51:17;6.00;99.90
21481;DHT22;10902;48.158;8.634;2023-03-25T00:53:49;5.90;99.90
21481;DHT22;10902;48.158;8.634;2023-03-25T00:56:16;6.10;99.90
21481;DHT22;10902;48.158;8.634;2023-03-25T00:58:42;6.10;99.90
21481;DHT22;10902;48.158;8.634;2023-03-25T01:01:19;6.00;99.90
21481;DHT22;10902;48.158;8.634;2023-03-25T01:03:49;5.90;99.90
21481;DHT22;10902;48.158;8.634;2023-03-25T01:06:23;5.90;99.90
21481;DHT22;10902;48.158;8.634;2023-03-25T01:08:54;5.80;99.90
21481;DHT22;10902;48.158;8.634;2023-03-25T01:11:27;5.80;99.90
21481;DHT22;10902;48.158;8.634;2023-03-25T01:13:54;6.00;99.90
21481;DHT22;10902;48.158;8.634;2023-03-25T01:16:21;6.10;99.90
21481;DHT22;10902;48.158;8.634;2023-03-25T01:18:46;6.20;99.90
21481;DHT22;10902;48.158;8.634;2023-03-25T01:21:12;6.10;99.90
21481;DHT22;10902;48.158;8.634;2023-03-25T01:23:38;6.20;99.90
21481;DHT22;10902;48.158;8.634;2023-03-25T01:26:04;6.30;99.90
21481;DHT22;10902;48.158;8.634;2023-03-25T01:28:30;6.40;99.90
21481;DHT22;10902;48.158;8.634;2023-03-25T01:31:00;6.40;99.90
21481;DHT22;10902;48.158;8.634;2023-03-25T01:33:26;6.40;99.90
21481;DHT22;10902;48.158;8.634;2023-03-25T01:35:51;6.30;99.90
21481;DHT22;10902;48.158;8.634;2023-03-25T01:38:17;6.20;99.90
21481;DHT22;10902;48.158;8.634;2023-03-25T01:40:45;6.10;99.90
21481;DHT22;10902;48.158;8.634;2023-03-25T01:43:11;6.10;99.90
21481;DHT22;10902;48.158;8.634;2023-03-25T01:45:38;5.50;99.90
21481;DHT22;10902;48.158;8.634;2023-03-25T01:50:32;4.50;99.90
21481;DHT22;10902;48.158;8.634;2023-03-25T01:53:00;4.30;99.90
21481;DHT22;10902;48.158;8.634;2023-03-25T01:55:28;4.20;99.90
21481;DHT22;10902;48.158;8.634;2023-03-25T01:57:58;4.20;99.90
21481;DHT22;10902;48.158;8.634;2023-03-25T02:00:24;4.10;99.90
21481;DHT22;10902;48.158;8.634;2023-03-25T02:02:52;4.00;99.90
21481;DHT22;10902;48.158;8.634;2023-03-25T02:05:34;4.00;99.90
21481;DHT22;10902;48.158;8.634;2023-03-25T02:08:03;4.00;99.90
21481;DHT22;10902;48.158;8.634;2023-03-25T02:10:30;4.00;99.90
21481;DHT22;10902;48.158;8.634;2023-03-25T02:12:57;4.00;99.90
21481;DHT22;10902;48.158;8.634;2023-03-25T02:15:23;4.00;99.90
21481;DHT22;10902;48.158;8.634;2023-03-25T02:18:17;4.00;99.90
21481;DHT22;10902;48.158;8.634;2023-03-25T02:23:35;4.10;99.90
21481;DHT22;10902;48.158;8.634;2023-03-25T02:29:06;4.40;99.90
21481;DHT22;10902;48.158;8.634;2023-03-25T02:37:18;5.10;99.90
21481;DHT22;10902;48.158;8.634;2023-03-25T02:40:21;5.50;99.90
21481;DHT22;10902;48.158;8.634;2023-03-25T02:43:01;5.60;99.90
21481;DHT22;10902;48.158;8.634;2023-03-25T02:45:34;5.40;99.90
21481;DHT22;10902;48.158;8.634;2023-03-25T02:48:05;5.20;99.90
21481;DHT22;10902;48.158;8.634;2023-03-25T02:50:39;5.10;99.90
21481;DHT22;10902;48.158;8.634;2023-03-25T02:53:09;5.00;99.90
21481;DHT22;10902;48.158;8.634;2023-03-25T02:55:37;5.00;99.90
21481;DHT22;10902;48.158;8.634;2023-03-25T02:58:08;4.90;99.90
21481;DHT22;10902;48.158;8.634;2023-03-25T03:00:35;5.00;99.90
21481;DHT22;10902;48.158;8.634;2023-03-25T03:03:04;5.00;99.90
21481;DHT22;10902;48.158;8.634;2023-03-25T03:05:33;5.00;99.90
21481;DHT22;10902;48.158;8.634;2023-03-25T03:10:50;5.10;99.90
21481;DHT22;10902;48.158;8.634;2023-03-25T03:19:14;5.10;99.90
21481;DHT22;10902;48.158;8.634;2023-03-25T03:21:55;5.20;99.90
21481;DHT22;10902;48.158;8.634;2023-03-25T03:24:35;5.20;99.90
21481;DHT22;10902;48.158;8.634;2023-03-25T03:29:45;5.20;99.90
21481;DHT22;10902;48.158;8.634;2023-03-25T03:32:35;5.30;99.90
21481;DHT22;10902;48.158;8.634;2023-03-25T03:35:12;5.30;99.90
21481;DHT22;10902;48.158;8.634;2023-03-25T03:37:44;5.30;99.90
21481;DHT22;10902;48.158;8.634;2023-03-25T03:40:16;5.30;99.90
21481;DHT22;10902;48.158;8.634;2023-03-25T03:42:57;5.30;99.90
21481;DHT22;10902;48.158;8.634;2023-03-25T03:45:29;5.30;99.90
21481;DHT22;10902;48.158;8.634;2023-03-25T03:47:59;5.30;99.90
21481;DHT22;10902;48.158;8.634;2023-03-25T03:50:34;5.30;99.90
21481;DHT22;10902;48.158;8.634;2023-03-25T03:53:09;5.30;99.90
21481;DHT22;10902;48.158;8.634;2023-03-25T03:55:43;5.30;99.90
21481;DHT22;10902;48.158;8.634;2023-03-25T03:58:17;5.20;99.90
21481;DHT22;10902;48.158;8.634;2023-03-25T04:03:44;5.10;99.90
21481;DHT22;10902;48.158;8.634;2023-03-25T04:09:29;5.10;99.90
21481;DHT22;10902;48.158;8.634;2023-03-25T04:14:25;5.00;99.90
21481;DHT22;10902;48.158;8.634;2023-03-25T04:16:51;5.00;99.90
21481;DHT22;10902;48.158;8.634;2023-03-25T04:19:18;5.00;99.90
21481;DHT22;10902;48.158;8.634;2023-03-25T04:21:45;5.00;99.90
21481;DHT22;10902;48.158;8.634;2023-03-25T04:24:12;4.90;99.90
21481;DHT22;10902;48.158;8.634;2023-03-25T04:26:41;4.80;99.90
21481;DHT22;10902;48.158;8.634;2023-03-25T04:29:08;4.90;99.90
21481;DHT22;10902;48.158;8.634;2023-03-25T04:31:34;4.90;99.90
21481;DHT22;10902;48.158;8.634;2023-03-25T04:34:00;4.90;99.90
21481;DHT22;10902;48.158;8.634;2023-03-25T04:36:27;4.90;99.90
21481;DHT22;10902;48.158;8.634;2023-03-25T04:39:02;4.90;99.90
21481;DHT22;10902;48.158;8.634;2023-03-25T04:41:28;4.90;99.90
21481;DHT22;10902;48.158;8.634;2023-03-25T04:43:53;4.90;99.90
21481;DHT22;10902;48.158;8.634;2023-03-25T04:46:19;4.90;99.90
21481;DHT22;10902;48.158;8.634;2023-03-25T04:48:45;4.90;99.90
21481;DHT22;10902;48.158;8.634;2023-03-25T04:51:12;4.80;99.90
21481;DHT22;10902;48.158;8.634;2023-03-25T04:53:39;4.80;99.90
21481;DHT22;10902;48.158;8.634;2023-03-25T04:56:06;4.80;99.90
21481;DHT22;10902;48.158;8.634;2023-03-25T04:58:32;4.80;99.90
21481;DHT22;10902;48.158;8.634;2023-03-25T05:00:58;4.80;99.90
21481;DHT22;10902;48.158;8.634;2023-03-25T05:03:31;4.80;99.90
21481;DHT22;10902;48.158;8.634;2023-03-25T05:05:57;4.80;99.90
21481;DHT22;10902;48.158;8.634;2023-03-25T05:08:23;4.80;99.90
21481;DHT22;10902;48.158;8.634;2023-03-25T05:10:49;4.80;99.90
21481;DHT22;10902;48.158;8.634;2023-03-25T05:13:15;4.70;99.90
21481;DHT22;10902;48.158;8.634;2023-03-25T05:15:40;4.60;99.90
21481;DHT22;10902;48.158;8.634;2023-03-25T05:18:12;4.60;99.90
21481;DHT22;10902;48.158;8.634;2023-03-25T05:20:47;4.60;99.90
21481;DHT22;10902;48.158;8.634;2023-03-25T05:23:15;4.60;99.90
21481;DHT22;10902;48.158;8.634;2023-03-25T05:25:43;4.60;99.90
21481;DHT22;10902;48.158;8.634;2023-03-25T05:28:09;4.60;99.90
21481;DHT22;10902;48.158;8.634;2023-03-25T05:30:42;4.60;99.90
21481;DHT22;10902;48.158;8.634;2023-03-25T05:33:11;4.50;99.90
21481;DHT22;10902;48.158;8.634;2023-03-25T05:35:40;4.40;99.90
21481;DHT22;10902;48.158;8.634;2023-03-25T05:38:06;4.40;99.90
21481;DHT22;10902;48.158;8.634;2023-03-25T05:40:37;4.40;99.90
21481;DHT22;10902;48.158;8.634;2023-03-25T05:43:03;4.40;99.90
21481;DHT22;10902;48.158;8.634;2023-03-25T05:45:31;4.30;99.90
21481;DHT22;10902;48.158;8.634;2023-03-25T05:47:56;4.30;99.90
21481;DHT22;10902;48.158;8.634;2023-03-25T05:50:25;4.20;99.90
21481;DHT22;10902;48.158;8.634;2023-03-25T05:52:52;4.20;99.90
21481;DHT22;10902;48.158;8.634;2023-03-25T05:55:20;4.20;99.90
21481;DHT22;10902;48.158;8.634;2023-03-25T05:57:46;4.20;99.90
21481;DHT22;10902;48.158;8.634;2023-03-25T06:00:13;4.20;99.90
21481;DHT22;10902;48.158;8.634;2023-03-25T06:02:40;4.20;99.90
21481;DHT22;10902;48.158;8.634;2023-03-25T06:05:08;4.20;99.90
21481;DHT22;10902;48.158;8.634;2023-03-25T06:07:35;4.20;99.90
21481;DHT22;10902;48.158;8.634;2023-03-25T06:10:02;4.30;99.90
21481;DHT22;10902;48.158;8.634;2023-03-25T06:12:28;4.30;99.90
21481;DHT22;10902;48.158;8.634;2023-03-25T06:14:57;4.30;99.90
21481;DHT22;10902;48.158;8.634;2023-03-25T06:17:23;4.30;99.90
21481;DHT22;10902;48.158;8.634;2023-03-25T06:19:50;4.30;99.90
21481;DHT22;10902;48.158;8.634;2023-03-25T06:22:16;4.20;99.90
21481;DHT22;10902;48.158;8.634;2023-03-25T06:24:42;4.30;99.90
21481;DHT22;10902;48.158;8.634;2023-03-25T06:27:12;4.20;99.90
21481;DHT22;10902;48.158;8.634;2023-03-25T06:29:38;4.20;99.90
21481;DHT22;10902;48.158;8.634;2023-03-25T06:32:08;4.20;99.90
21481;DHT22;10902;48.158;8.634;2023-03-25T06:34:36;4.20;99.90
21481;DHT22;10902;48.158;8.634;2023-03-25T06:37:03;4.20;99.90
21481;DHT22;10902;48.158;8.634;2023-03-25T06:39:30;4.10;99.90
21481;DHT22;10902;48.158;8.634;2023-03-25T06:41:59;4.10;99.90
21481;DHT22;10902;48.158;8.634;2023-03-25T06:44:25;4.10;99.90
21481;DHT22;10902;48.158;8.634;2023-03-25T06:46:51;4.00;99.90
21481;DHT22;10902;48.158;8.634;2023-03-25T06:49:17;4.00;99.90
21481;DHT22;10902;48.158;8.634;2023-03-25T06:51:43;3.90;99.90
21481;DHT22;10902;48.158;8.634;2023-03-25T06:54:09;3.90;99.90
21481;DHT22;10902;48.158;8.634;2023-03-25T06:56:34;3.80;99.90
21481;DHT22;10902;48.158;8.634;2023-03-25T06:59:00;3.80;99.90
21481;DHT22;10902;48.158;8.634;2023-03-25T07:01:26;3.80;99.90
21481;DHT22;10902;48.158;8.634;2023-03-25T07:03:51;3.90;99.90
21481;DHT22;10902;48.158;8.634;2023-03-25T07:06:19;3.90;99.90
21481;DHT22;10902;48.158;8.634;2023-03-25T07:08:46;4.00;99.90
21481;DHT22;10902;48.158;8.634;2023-03-25T07:11:13;4.10;99.90
21481;DHT22;10902;48.158;8.634;2023-03-25T07:13:39;4.20;99.90
21481;DHT22;10902;48.158;8.634;2023-03-25T07:16:05;4.20;99.90
21481;DHT22;10902;48.158;8.634;2023-03-25T07:18:31;4.30;99.90
21481;DHT22;10902;48.158;8.634;2023-03-25T07:20:57;4.30;99.90
21481;DHT22;10902;48.158;8.634;2023-03-25T07:23:23;4.30;99.90
21481;DHT22;10902;48.158;8.634;2023-03-25T07:25:49;4.40;99.90
21481;DHT22;10902;48.158;8.634;2023-03-25T07:28:14;4.50;99.90
21481;DHT22;10902;48.158;8.634;2023-03-25T07:30:40;4.60;99.90
21481;DHT22;10902;48.158;8.634;2023-03-25T07:33:06;4.70;99.90
21481;DHT22;10902;48.158;8.634;2023-03-25T07:35:31;4.70;99.90
21481;DHT22;10902;48.158;8.634;2023-03-25T07:37:57;4.70;99.90
21481;DHT22;10902;48.158;8.634;2023-03-25T07:40:23;4.70;99.90
21481;DHT22;10902;48.158;8.634;2023-03-25T07:42:48;4.70;99.90
21481;DHT22;10902;48.158;8.634;2023-03-25T07:45:14;4.70;99.90
21481;DHT22;10902;48.158;8.634;2023-03-25T07:47:40;4.90;99.90
21481;DHT22;10902;48.158;8.634;2023-03-25T07:50:06;4.90;99.90
21481;DHT22;10902;48.158;8.634;2023-03-25T07:52:31;4.90;99.90
21481;DHT22;10902;48.158;8.634;2023-03-25T07:54:57;4.90;99.90
21481;DHT22;10902;48.158;8.634;2023-03-25T07:57:25;4.90;99.90
21481;DHT22;10902;48.158;8.634;2023-03-25T07:59:50;4.90;99.90
21481;DHT22;10902;48.158;8.634;2023-03-25T08:02:16;5.00;99.90
21481;DHT22;10902;48.158;8.634;2023-03-25T08:04:41;5.00;99.90
21481;DHT22;10902;48.158;8.634;2023-03-25T08:07:07;5.00;99.90
21481;DHT22;10902;48.158;8.634;2023-03-25T08:09:32;5.00;99.90
21481;DHT22;10902;48.158;8.634;2023-03-25T08:11:58;5.10;99.90
21481;DHT22;10902;48.158;8.634;2023-03-25T08:14:24;5.10;99.90
21481;DHT22;10902;48.158;8.634;2023-03-25T08:16:50;5.10;99.90
21481;DHT22;10902;48.158;8.634;2023-03-25T08:19:16;5.00;99.90
21481;DHT22;10902;48.158;8.634;2023-03-25T08:21:41;5.00;99.90
21481;DHT22;10902;48.158;8.634;2023-03-25T08:24:07;4.90;99.90
21481;DHT22;10902;48.158;8.634;2023-03-25T08:26:33;4.90;99.90
21481;DHT22;10902;48.158;8.634;2023-03-25T08:29:00;4.80;99.90
21481;DHT22;10902;48.158;8.634;2023-03-25T08:31:28;4.80;99.90
21481;DHT22;10902;48.158;8.634;2023-03-25T08:34:01;4.80;99.90
21481;DHT22;10902;48.158;8.634;2023-03-25T08:36:27;4.90;99.90
21481;DHT22;10902;48.158;8.634;2023-03-25T08:38:53;4.90;99.90
21481;DHT22;10902;48.158;8.634;2023-03-25T08:41:18;5.00;99.90
21481;DHT22;10902;48.158;8.634;2023-03-25T08:43:44;5.10;99.90
21481;DHT22;10902;48.158;8.634;2023-03-25T08:46:10;5.10;99.90
21481;DHT22;10902;48.158;8.634;2023-03-25T08:48:36;5.20;99.90
21481;DHT22;10902;48.158;8.634;2023-03-25T08:51:03;5.30;99.90
21481;DHT22;10902;48.158;8.634;2023-03-25T08:53:29;5.40;99.90
21481;DHT22;10902;48.158;8.634;2023-03-25T08:55:56;5.50;99.90
21481;DHT22;10902;48.158;8.634;2023-03-25T08:58:22;5.60;99.90
21481;DHT22;10902;48.158;8.634;2023-03-25T09:00:50;5.70;99.90
21481;DHT22;10902;48.158;8.634;2023-03-25T09:03:19;5.70;99.90
21481;DHT22;10902;48.158;8.634;2023-03-25T09:05:45;5.70;99.90
21481;DHT22;10902;48.158;8.634;2023-03-25T09:08:11;5.70;99.90
21481;DHT22;10902;48.158;8.634;2023-03-25T09:10:36;5.70;99.90
21481;DHT22;10902;48.158;8.634;2023-03-25T09:13:02;5.70;99.90
21481;DHT22;10902;48.158;8.634;2023-03-25T09:15:28;5.70;99.90
21481;DHT22;10902;48.158;8.634;2023-03-25T09:17:53;5.80;99.90
21481;DHT22;10902;48.158;8.634;2023-03-25T09:20:19;5.70;99.90
21481;DHT22;10902;48.158;8.634;2023-03-25T09:22:45;5.80;99.90
21481;DHT22;10902;48.158;8.634;2023-03-25T09:25:10;5.90;99.90
21481;DHT22;10902;48.158;8.634;2023-03-25T09:27:36;6.00;99.90
21481;DHT22;10902;48.158;8.634;2023-03-25T09:30:03;6.10;99.90
21481;DHT22;10902;48.158;8.634;2023-03-25T09:32:29;6.30;99.90
21481;DHT22;10902;48.158;8.634;2023-03-25T09:34:54;6.40;99.90
21481;DHT22;10902;48.158;8.634;2023-03-25T09:37:20;6.50;99.90
21481;DHT22;10902;48.158;8.634;2023-03-25T09:39:46;6.60;99.90
21481;DHT22;10902;48.158;8.634;2023-03-25T09:42:39;6.90;99.90
21481;DHT22;10902;48.158;8.634;2023-03-25T09:45:43;7.20;99.90
21481;DHT22;10902;48.158;8.634;2023-03-25T09:50:43;7.00;99.90
21481;DHT22;10902;48.158;8.634;2023-03-25T09:55:40;7.10;99.90
21481;DHT22;10902;48.158;8.634;2023-03-25T10:00:56;7.50;99.90
21481;DHT22;10902;48.158;8.634;2023-03-25T10:03:30;7.60;99.90
21481;DHT22;10902;48.158;8.634;2023-03-25T10:06:11;7.90;99.90
21481;DHT22;10902;48.158;8.634;2023-03-25T10:09:11;7.80;99.90
21481;DHT22;10902;48.158;8.634;2023-03-25T10:12:11;8.10;99.90
21481;DHT22;10902;48.158;8.634;2023-03-25T10:14:53;8.40;99.90
21481;DHT22;10902;48.158;8.634;2023-03-25T10:17:28;9.00;99.90
21481;DHT22;10902;48.158;8.634;2023-03-25T10:20:19;8.80;99.90
21481;DHT22;10902;48.158;8.634;2023-03-25T10:23:07;8.60;99.90
21481;DHT22;10902;48.158;8.634;2023-03-25T10:25:38;8.50;99.90
21481;DHT22;10902;48.158;8.634;2023-03-25T10:28:11;8.70;99.90
21481;DHT22;10902;48.158;8.634;2023-03-25T10:30:45;8.50;99.90
21481;DHT22;10902;48.158;8.634;2023-03-25T10:33:38;8.10;99.90
21481;DHT22;10902;48.158;8.634;2023-03-25T10:36:12;8.00;99.90
21481;DHT22;10902;48.158;8.634;2023-03-25T10:38:40;8.10;99.90
21481;DHT22;10902;48.158;8.634;2023-03-25T10:43:43;7.70;99.90
21481;DHT22;10902;48.158;8.634;2023-03-25T10:46:34;7.60;99.90
21481;DHT22;10902;48.158;8.634;2023-03-25T10:49:03;7.60;99.90
21481;DHT22;10902;48.158;8.634;2023-03-25T10:51:31;8.00;99.90
21481;DHT22;10902;48.158;8.634;2023-03-25T10:53:58;8.60;99.90
21481;DHT22;10902;48.158;8.634;2023-03-25T10:56:29;8.70;99.90
21481;DHT22;10902;48.158;8.634;2023-03-25T10:58:57;9.50;99.90
21481;DHT22;10902;48.158;8.634;2023-03-25T11:01:42;10.00;99.90
21481;DHT22;10902;48.158;8.634;2023-03-25T11:04:12;10.50;99.90
21481;DHT22;10902;48.158;8.634;2023-03-25T11:06:40;9.80;99.90
21481;DHT22;10902;48.158;8.634;2023-03-25T11:09:35;9.40;99.90
21481;DHT22;10902;48.158;8.634;2023-03-25T11:12:05;9.30;99.90
21481;DHT22;10902;48.158;8.634;2023-03-25T11:14:36;9.20;99.90
21481;DHT22;10902;48.158;8.634;2023-03-25T11:17:09;9.10;99.90
21481;DHT22;10902;48.158;8.634;2023-03-25T11:19:39;9.70;99.90
21481;DHT22;10902;48.158;8.634;2023-03-25T11:22:22;10.20;99.90
21481;DHT22;10902;48.158;8.634;2023-03-25T11:24:53;9.70;99.90
21481;DHT22;10902;48.158;8.634;2023-03-25T11:27:25;10.00;99.90
21481;DHT22;10902;48.158;8.634;2023-03-25T11:29:55;9.90;99.90
21481;DHT22;10902;48.158;8.634;2023-03-25T11:32:40;10.40;99.90
21481;DHT22;10902;48.158;8.634;2023-03-25T11:35:25;10.40;99.90
21481;DHT22;10902;48.158;8.634;2023-03-25T11:37:59;10.60;99.90
21481;DHT22;10902;48.158;8.634;2023-03-25T11:40:27;10.10;99.90
21481;DHT22;10902;48.158;8.634;2023-03-25T11:42:58;10.30;99.90
21481;DHT22;10902;48.158;8.634;2023-03-25T11:45:34;10.10;99.90
21481;DHT22;10902;48.158;8.634;2023-03-25T11:48:13;9.90;99.90
21481;DHT22;10902;48.158;8.634;2023-03-25T11:51:03;10.50;99.90
21481;DHT22;10902;48.158;8.634;2023-03-25T11:53:31;10.70;99.90
21481;DHT22;10902;48.158;8.634;2023-03-25T11:56:05;10.00;99.90
21481;DHT22;10902;48.158;8.634;2023-03-25T11:58:34;10.60;99.90
21481;DHT22;10902;48.158;8.634;2023-03-25T12:01:51;11.00;99.90
21481;DHT22;10902;48.158;8.634;2023-03-25T12:04:11;11.40;99.90
21481;DHT22;10902;48.158;8.634;2023-03-25T12:09:20;11.20;99.90
21481;DHT22;10902;48.158;8.634;2023-03-25T12:11:49;10.70;99.90
21481;DHT22;10902;48.158;8.634;2023-03-25T12:14:47;11.00;99.90
21481;DHT22;10902;48.158;8.634;2023-03-25T12:17:34;11.40;99.90
21481;DHT22;10902;48.158;8.634;2023-03-25T12:28:31;10.00;99.90
21481;DHT22;10902;48.158;8.634;2023-03-25T12:39:21;10.70;99.90
21481;DHT22;10902;48.158;8.634;2023-03-25T12:56:40;11.30;99.90
21481;DHT22;10902;48.158;8.634;2023-03-25T13:05:29;10.70;99.90
21481;DHT22;10902;48.158;8.634;2023-03-25T13:08:00;10.80;99.90
21481;DHT22;10902;48.158;8.634;2023-03-25T13:10:33;11.40;99.90
21481;DHT22;10902;48.158;8.634;2023-03-25T13:13:02;11.50;99.90
21481;DHT22;10902;48.158;8.634;2023-03-25T13:15:35;11.70;99.90
21481;DHT22;10902;48.158;8.634;2023-03-25T13:20:40;11.60;99.90
21481;DHT22;10902;48.158;8.634;2023-03-25T13:23:12;11.80;99.90
21481;DHT22;10902;48.158;8.634;2023-03-25T13:25:50;11.70;99.90
21481;DHT22;10902;48.158;8.634;2023-03-25T13:28:26;11.10;99.90
21481;DHT22;10902;48.158;8.634;2023-03-25T13:30:54;11.30;99.90
21481;DHT22;10902;48.158;8.634;2023-03-25T13:33:27;11.20;99.90
21481;DHT22;10902;48.158;8.634;2023-03-25T13:36:07;11.50;99.90
21481;DHT22;10902;48.158;8.634;2023-03-25T13:38:41;11.20;99.90
21481;DHT22;10902;48.158;8.634;2023-03-25T13:44:12;12.10;99.90
21481;DHT22;10902;48.158;8.634;2023-03-25T13:46:49;12.00;99.90
21481;DHT22;10902;48.158;8.634;2023-03-25T13:49:31;11.40;99.90
21481;DHT22;10902;48.158;8.634;2023-03-25T13:51:58;11.80;99.90
21481;DHT22;10902;48.158;8.634;2023-03-25T14:09:16;12.30;99.90
21481;DHT22;10902;48.158;8.634;2023-03-25T14:11:24;10.80;99.90
21481;DHT22;10902;48.158;8.634;2023-03-25T14:13:56;9.70;99.90
21481;DHT22;10902;48.158;8.634;2023-03-25T14:16:46;9.90;99.90
21481;DHT22;10902;48.158;8.634;2023-03-25T14:19:16;10.30;99.90
21481;DHT22;10902;48.158;8.634;2023-03-25T14:21:49;10.80;99.90
21481;DHT22;10902;48.158;8.634;2023-03-25T14:24:27;11.40;99.90
21481;DHT22;10902;48.158;8.634;2023-03-25T14:27:15;11.60;99.90
21481;DHT22;10902;48.158;8.634;2023-03-25T14:29:45;12.10;99.90
21481;DHT22;10902;48.158;8.634;2023-03-25T14:34:41;12.40;99.90
21481;DHT22;10902;48.158;8.634;2023-03-25T14:44:33;12.50;99.90
21481;DHT22;10902;48.158;8.634;2023-03-25T14:52:25;12.10;99.90
21481;DHT22;10902;48.158;8.634;2023-03-25T14:54:52;11.40;99.90
21481;DHT22;10902;48.158;8.634;2023-03-25T14:57:24;10.60;99.90
21481;DHT22;10902;48.158;8.634;2023-03-25T14:59:54;10.50;99.90
21481;DHT22;10902;48.158;8.634;2023-03-25T15:02:29;10.00;99.90
21481;DHT22;10902;48.158;8.634;2023-03-25T15:04:59;10.20;99.90
21481;DHT22;10902;48.158;8.634;2023-03-25T15:10:26;10.80;99.90
21481;DHT22;10902;48.158;8.634;2023-03-25T15:18:09;12.30;99.90
21481;DHT22;10902;48.158;8.634;2023-03-25T15:20:34;11.90;99.90
21481;DHT22;10902;48.158;8.634;2023-03-25T15:25:54;12.10;99.90
21481;DHT22;10902;48.158;8.634;2023-03-25T15:28:56;12.70;99.90
21481;DHT22;10902;48.158;8.634;2023-03-25T15:32:02;12.30;99.90
21481;DHT22;10902;48.158;8.634;2023-03-25T15:40:32;12.20;99.90
21481;DHT22;10902;48.158;8.634;2023-03-25T15:43:22;12.30;99.90
21481;DHT22;10902;48.158;8.634;2023-03-25T15:51:43;11.30;99.90
21481;DHT22;10902;48.158;8.634;2023-03-25T15:54:35;10.90;99.90
21481;DHT22;10902;48.158;8.634;2023-03-25T16:00:16;11.60;99.90
21481;DHT22;10902;48.158;8.634;2023-03-25T16:02:58;11.30;99.90
21481;DHT22;10902;48.158;8.634;2023-03-25T16:05:27;11.70;99.90
21481;DHT22;10902;48.158;8.634;2023-03-25T16:07:55;11.90;99.90
21481;DHT22;10902;48.158;8.634;2023-03-25T16:10:28;11.80;99.90
21481;DHT22;10902;48.158;8.634;2023-03-25T16:12:56;11.00;99.90
21481;DHT22;10902;48.158;8.634;2023-03-25T16:15:28;9.70;99.90
21481;DHT22;10902;48.158;8.634;2023-03-25T16:17:55;9.40;99.90
21481;DHT22;10902;48.158;8.634;2023-03-25T16:20:23;10.30;99.90
21481;DHT22;10902;48.158;8.634;2023-03-25T16:22:54;11.00;99.90
21481;DHT22;10902;48.158;8.634;2023-03-25T16:25:35;11.20;99.90
21481;DHT22;10902;48.158;8.634;2023-03-25T16:28:05;11.20;99.90
21481;DHT22;10902;48.158;8.634;2023-03-25T16:30:37;11.50;99.90
21481;DHT22;10902;48.158;8.634;2023-03-25T16:33:14;12.10;99.90
21481;DHT22;10902;48.158;8.634;2023-03-25T16:35:48;11.90;99.90
21481;DHT22;10902;48.158;8.634;2023-03-25T16:38:20;12.00;99.90
21481;DHT22;10902;48.158;8.634;2023-03-25T16:40:48;11.90;99.90
21481;DHT22;10902;48.158;8.634;2023-03-25T16:43:24;11.60;99.90
21481;DHT22;10902;48.158;8.634;2023-03-25T16:45:54;11.50;99.90
21481;DHT22;10902;48.158;8.634;2023-03-25T16:48:27;11.30;99.90
21481;DHT22;10902;48.158;8.634;2023-03-25T16:50:54;10.10;99.90
21481;DHT22;10902;48.158;8.634;2023-03-25T16:53:22;9.40;99.90
21481;DHT22;10902;48.158;8.634;2023-03-25T16:58:23;10.00;99.90
21481;DHT22;10902;48.158;8.634;2023-03-25T17:00:52;9.70;99.90
21481;DHT22;10902;48.158;8.634;2023-03-25T17:03:46;8.90;99.90
21481;DHT22;10902;48.158;8.634;2023-03-25T17:06:31;8.30;99.90
21481;DHT22;10902;48.158;8.634;2023-03-25T17:09:00;8.10;99.90
21481;DHT22;10902;48.158;8.634;2023-03-25T17:11:28;8.00;99.90
21481;DHT22;10902;48.158;8.634;2023-03-25T17:14:05;7.90;99.90
21481;DHT22;10902;48.158;8.634;2023-03-25T17:16:32;7.80;99.90
21481;DHT22;10902;48.158;8.634;2023-03-25T17:18:58;7.70;99.90
21481;DHT22;10902;48.158;8.634;2023-03-25T17:21:28;7.70;99.90
21481;DHT22;10902;48.158;8.634;2023-03-25T17:23:57;7.70;99.90
21481;DHT22;10902;48.158;8.634;2023-03-25T17:26:29;7.70;99.90
21481;DHT22;10902;48.158;8.634;2023-03-25T17:29:00;7.60;99.90
21481;DHT22;10902;48.158;8.634;2023-03-25T17:31:31;7.60;99.90
21481;DHT22;10902;48.158;8.634;2023-03-25T17:36:24;7.50;99.90
21481;DHT22;10902;48.158;8.634;2023-03-25T17:38:51;7.50;99.90
21481;DHT22;10902;48.158;8.634;2023-03-25T17:41:19;7.50;99.90
21481;DHT22;10902;48.158;8.634;2023-03-25T17:43:53;7.40;99.90
21481;DHT22;10902;48.158;8.634;2023-03-25T17:46:22;7.30;99.90
21481;DHT22;10902;48.158;8.634;2023-03-25T17:48:48;7.30;99.90
21481;DHT22;10902;48.158;8.634;2023-03-25T17:51:15;7.30;99.90
21481;DHT22;10902;48.158;8.634;2023-03-25T17:53:41;7.30;99.90
21481;DHT22;10902;48.158;8.634;2023-03-25T17:56:10;7.40;99.90
21481;DHT22;10902;48.158;8.634;2023-03-25T17:58:36;7.40;99.90
21481;DHT22;10902;48.158;8.634;2023-03-25T18:01:02;7.50;99.90
21481;DHT22;10902;48.158;8.634;2023-03-25T18:03:29;7.50;99.90
21481;DHT22;10902;48.158;8.634;2023-03-25T18:05:56;7.60;99.90
21481;DHT22;10902;48.158;8.634;2023-03-25T18:08:26;7.50;99.90
21481;DHT22;10902;48.158;8.634;2023-03-25T18:10:53;7.30;99.90
21481;DHT22;10902;48.158;8.634;2023-03-25T18:13:19;7.20;99.90
21481;DHT22;10902;48.158;8.634;2023-03-25T18:15:47;7.20;99.90
21481;DHT22;10902;48.158;8.634;2023-03-25T18:18:16;7.20;99.90
21481;DHT22;10902;48.158;8.634;2023-03-25T18:20:42;7.20;99.90
21481;DHT22;10902;48.158;8.634;2023-03-25T18:23:08;7.20;99.90
21481;DHT22;10902;48.158;8.634;2023-03-25T18:25:33;7.20;99.90
21481;DHT22;10902;48.158;8.634;2023-03-25T18:27:59;7.10;99.90
21481;DHT22;10902;48.158;8.634;2023-03-25T18:30:43;7.10;99.90
21481;DHT22;10902;48.158;8.634;2023-03-25T18:33:09;6.90;99.90
21481;DHT22;10902;48.158;8.634;2023-03-25T18:35:34;6.80;99.90